Time;durP1;ratioP1;P1;durP2;ratioP2;P2;SDS_P1;SDS_P2;PMS_P1;PMS_P2;Temp;Humidity;BMP_temperature;BMP_pressure;BME280_temperature;BME280_humidity;BME280_pressure;Samples;Min_cycle;Max_cycle;Signal;HPM_P1;HPM_P2
2022/06/25 00:01:49;;;;;;;4.32;2.10;;;;;;;23.87;43.23;98494.69;5011993;28;20468;-69
2022/06/25 00:07:00;;;;;;;2.92;2.10;;;;;;;23.82;43.40;98489.97;4925973;29;20056;-72
2022/06/25 00:09:25;;;;;;;4.18;2.08;;;;;;;23.82;43.42;98492.63;4936402;29;20593;-72
2022/06/25 00:14:36;;;;;;;4.13;2.08;;;;;;;23.80;43.20;98492.03;4939273;29;20098;-72
2022/06/25 00:17:02;;;;;;;4.65;2.10;;;;;;;23.79;43.49;98487.72;4952649;29;20471;-71
2022/06/25 00:19:27;;;;;;;5.88;2.15;;;;;;;23.74;43.46;98480.34;4936438;29;20076;-71
2022/06/25 00:21:53;;;;;;;2.70;1.88;;;;;;;23.77;43.13;98479.13;4936312;28;20395;-74
2022/06/25 00:24:18;;;;;;;5.30;2.00;;;;;;;23.77;43.28;98482.59;4952468;29;20182;-72
2022/06/25 00:26:44;;;;;;;3.38;2.10;;;;;;;23.76;43.38;98485.47;4950572;28;20078;-72
2022/06/25 00:29:10;;;;;;;6.32;2.00;;;;;;;23.72;43.51;98484.22;4936467;29;20093;-72
2022/06/25 00:31:39;;;;;;;3.47;2.03;;;;;;;23.76;43.29;98488.13;4936211;29;20101;-72
2022/06/25 00:34:04;;;;;;;3.75;2.40;;;;;;;23.75;43.49;98489.97;4935709;29;20043;-73
2022/06/25 00:36:30;;;;;;;3.42;2.00;;;;;;;23.72;43.42;98485.06;4935771;29;20087;-73
2022/06/25 00:38:56;;;;;;;8.23;2.25;;;;;;;23.68;43.37;98475.84;4936235;29;20051;-76
2022/06/25 00:41:21;;;;;;;4.97;2.03;;;;;;;23.67;43.48;98476.84;4952175;29;20046;-73
2022/06/25 00:43:48;;;;;;;5.50;2.45;;;;;;;23.65;43.85;98468.25;4974496;28;20417;-73
2022/06/25 00:46:13;;;;;;;3.83;2.30;;;;;;;23.63;43.95;98473.00;5012439;28;20025;-73
2022/06/25 00:48:39;;;;;;;5.03;2.05;;;;;;;23.61;43.62;98475.03;5010649;28;20523;-73
2022/06/25 00:51:12;;;;;;;9.00;2.25;;;;;;;23.59;43.67;98466.44;5011019;28;20046;-73
2022/06/25 00:53:41;;;;;;;3.58;2.17;;;;;;;23.58;43.81;98467.47;5011018;28;20057;-72
2022/06/25 00:56:07;;;;;;;2.90;2.30;;;;;;;23.56;43.68;98462.34;4995056;28;20018;-72
2022/06/25 00:58:33;;;;;;;2.97;2.20;;;;;;;23.53;43.83;98445.94;5010456;28;20073;-75
2022/06/25 01:00:59;;;;;;;6.65;2.20;;;;;;;23.54;43.70;98450.25;5011125;28;20049;-74
2022/06/25 01:03:26;;;;;;;6.65;2.13;;;;;;;23.53;43.67;98449.44;4993221;28;20096;-74
2022/06/25 01:05:52;;;;;;;3.78;2.42;;;;;;;23.52;43.79;98450.47;5010190;28;20404;-75
2022/06/25 01:08:18;;;;;;;6.82;2.30;;;;;;;23.49;43.69;98445.53;5010935;28;20041;-74
2022/06/25 01:10:44;;;;;;;5.28;2.10;;;;;;;23.48;43.85;98439.41;5011834;28;20038;-74
2022/06/25 01:13:09;;;;;;;3.17;2.08;;;;;;;23.52;43.86;98447.00;5011731;28;20030;-75
2022/06/25 01:15:35;;;;;;;6.93;2.13;;;;;;;23.52;43.89;98447.00;5011896;28;20069;-75
2022/06/25 01:18:00;;;;;;;4.28;2.10;;;;;;;23.49;43.94;98440.22;4978490;28;20103;-75
2022/06/25 01:20:26;;;;;;;3.90;1.98;;;;;;;23.46;44.19;98435.31;5011864;28;20057;-75
2022/06/25 01:22:52;;;;;;;2.88;1.95;;;;;;;23.42;44.04;98424.25;4995237;28;20068;-75
2022/06/25 01:25:18;;;;;;;3.88;2.33;;;;;;;23.44;44.06;98438.19;5011250;28;20042;-75
2022/06/25 01:27:43;;;;;;;4.03;2.22;;;;;;;23.43;44.27;98431.19;5011085;28;20041;-75
2022/06/25 01:30:11;;;;;;;3.03;2.20;;;;;;;23.44;44.32;98440.03;5012014;28;20057;-75
2022/06/25 01:32:37;;;;;;;3.53;2.15;;;;;;;23.41;44.12;98429.78;4994569;28;20046;-75
2022/06/25 01:35:03;;;;;;;4.65;2.47;;;;;;;23.40;44.10;98426.28;5011547;28;20026;-75
2022/06/25 01:37:29;;;;;;;3.03;2.13;;;;;;;23.40;44.15;98431.63;4996120;28;20469;-75
2022/06/25 01:39:54;;;;;;;2.75;2.03;;;;;;;23.41;44.38;98438.59;5018233;28;20084;-75
2022/06/25 01:45:05;;;;;;;7.82;2.13;;;;;;;23.39;44.30;98431.81;5018943;28;20072;-75
2022/06/25 01:47:31;;;;;;;4.25;2.30;;;;;;;23.37;44.50;98434.72;5013835;28;20053;-76
2022/06/25 01:49:56;;;;;;;3.55;2.15;;;;;;;23.38;44.58;98427.53;5000079;28;20025;-74
2022/06/25 01:52:22;;;;;;;5.70;2.17;;;;;;;23.38;44.29;98428.34;5016409;28;20136;-74
2022/06/25 01:54:47;;;;;;;6.25;2.20;;;;;;;23.36;44.41;98430.41;5016665;28;20111;-74
2022/06/25 01:57:13;;;;;;;2.67;2.10;;;;;;;23.35;44.49;98430.63;5000811;28;20068;-68
2022/06/25 01:59:38;;;;;;;17.58;2.28;;;;;;;23.54;44.96;98432.41;5018021;28;20492;-70
2022/06/25 02:02:04;;;;;;;60.92;3.25;;;;;;;23.70;44.88;98425.00;5016882;28;20042;-68
2022/06/25 02:04:29;;;;;;;35.25;2.75;;;;;;;23.85;44.51;98422.94;5017952;28;20474;-70
2022/06/25 02:06:55;;;;;;;26.52;2.78;;;;;;;23.94;44.46;98418.19;5017934;28;20036;-69
2022/06/25 02:09:20;;;;;;;9.70;2.45;;;;;;;24.05;43.87;98411.38;5016810;28;20080;-70
2022/06/25 02:11:46;;;;;;;6.72;2.15;;;;;;;24.12;43.64;98422.84;5016808;28;20041;-71
2022/06/25 02:14:11;;;;;;;6.80;2.38;;;;;;;24.16;43.19;98426.69;5017658;28;20053;-71
2022/06/25 02:16:37;;;;;;;7.68;2.05;;;;;;;24.21;43.26;98418.91;5016875;28;20033;-70
2022/06/25 02:19:02;;;;;;;7.30;1.80;;;;;;;24.21;42.75;98421.56;5000653;28;20049;-71
2022/06/25 02:21:28;;;;;;;4.13;1.70;;;;;;;24.26;42.80;98410.22;5017204;28;20065;-70
2022/06/25 02:23:53;;;;;;;7.10;2.22;;;;;;;24.31;42.65;98415.75;5016564;28;20540;-71
2022/06/25 02:26:19;;;;;;;4.38;2.10;;;;;;;24.29;42.71;98410.63;5017919;28;20034;-70
2022/06/25 02:28:44;;;;;;;6.28;2.10;;;;;;;24.24;42.81;98415.78;5016476;28;20543;-71
2022/06/25 02:31:09;;;;;;;8.00;2.10;;;;;;;24.25;42.56;98421.94;5017595;28;20059;-70
2022/06/25 02:33:35;;;;;;;5.05;2.17;;;;;;;24.24;42.21;98423.78;5016661;28;20089;-70
2022/06/25 02:36:00;;;;;;;10.30;2.55;;;;;;;24.27;42.34;98431.34;5000115;28;20022;-70
2022/06/25 02:38:26;;;;;;;6.43;2.58;;;;;;;24.28;42.34;98432.19;5016501;28;20030;-70
2022/06/25 02:40:52;;;;;;;4.60;2.00;;;;;;;24.37;42.11;98436.25;5016599;28;20030;-70
2022/06/25 02:43:17;;;;;;;5.55;2.10;;;;;;;24.42;41.78;98435.63;5016633;28;20084;-72
2022/06/25 02:45:43;;;;;;;6.95;2.15;;;;;;;24.42;41.79;98431.09;5016687;28;20026;-71
2022/06/25 02:48:10;;;;;;;5.45;2.15;;;;;;;24.51;41.64;98442.31;5016390;28;20084;-70
2022/06/25 02:50:35;;;;;;;10.65;2.50;;;;;;;24.56;41.72;98442.50;5012552;28;20567;-70
2022/06/25 02:53:01;;;;;;;4.47;2.10;;;;;;;24.59;41.74;98444.78;5013227;28;20045;-69
2022/06/25 03:00:54;;;;;;;5.65;2.40;;;;;;;24.37;41.39;98447.72;4999872;28;20060;-82
2022/06/25 03:03:19;;;;;;;3.65;2.40;;;;;;;24.29;41.51;98450.66;5013396;28;20053;-82
2022/06/25 03:05:45;;;;;;;3.38;2.30;;;;;;;24.36;41.40;98454.09;5012928;28;20413;-81
2022/06/25 03:08:10;;;;;;;4.38;2.40;;;;;;;24.50;41.52;98454.84;4996670;28;20073;-82
2022/06/25 03:10:36;;;;;;;4.30;2.65;;;;;;;24.68;40.98;98461.31;5014088;28;20058;-85
2022/06/25 03:13:01;;;;;;;6.57;2.53;;;;;;;24.49;40.87;98453.19;4996703;28;20045;-84
2022/06/25 03:15:28;;;;;;;3.33;2.15;;;;;;;24.63;40.77;98463.84;5015132;28;20493;-81
2022/06/25 03:17:54;;;;;;;2.90;2.10;;;;;;;25.19;39.69;98465.69;5012970;28;20535;-67
2022/06/25 03:20:19;;;;;;;3.63;2.20;;;;;;;25.71;38.69;98464.59;5012384;28;20045;-67
2022/06/25 03:22:45;;;;;;;4.15;2.20;;;;;;;26.23;37.84;98478.44;5012245;28;20034;-69
2022/06/25 03:25:11;;;;;;;4.10;2.20;;;;;;;26.57;36.96;98473.47;5013626;28;20057;-68
2022/06/25 03:27:36;;;;;;;7.07;2.50;;;;;;;26.80;37.05;98470.06;5012880;28;20046;-68
2022/06/25 03:30:03;;;;;;;5.10;2.60;;;;;;;26.62;37.08;98470.91;5012570;28;20095;-68
2022/06/25 03:32:29;;;;;;;4.55;2.35;;;;;;;26.20;38.02;98470.84;5011971;28;20038;-68
2022/06/25 03:34:55;;;;;;;4.13;2.35;;;;;;;25.98;38.62;98470.50;5012598;28;20084;-68
2022/06/25 03:37:20;;;;;;;5.43;2.67;;;;;;;25.86;39.28;98474.94;5012059;28;20121;-69
2022/06/25 03:39:46;;;;;;;5.70;2.90;;;;;;;26.50;38.10;98478.91;5012301;28;20091;-68
2022/06/25 03:42:11;;;;;;;5.13;2.67;;;;;;;27.37;36.90;98484.84;5012748;28;20072;-68
2022/06/25 03:44:36;;;;;;;4.03;2.30;;;;;;;28.07;35.53;98475.13;5011776;28;20046;-71
2022/06/25 03:47:03;;;;;;;6.68;2.40;;;;;;;28.08;35.38;98487.50;5011846;28;20044;-72
2022/06/25 03:49:29;;;;;;;3.70;2.63;;;;;;;27.95;35.92;98488.59;4995928;28;20076;-71
2022/06/25 03:51:55;;;;;;;5.70;2.58;;;;;;;28.04;35.43;98489.03;5012223;28;20042;-71
2022/06/25 03:54:20;;;;;;;7.40;2.80;;;;;;;27.82;35.64;98486.94;5011714;28;20168;-71
2022/06/25 03:56:46;;;;;;;4.53;2.40;;;;;;;28.54;34.88;98488.38;5012031;28;20091;-72
2022/06/25 03:59:11;;;;;;;6.43;2.63;;;;;;;29.69;32.65;98482.78;5011961;28;20116;-72
2022/06/25 04:01:37;;;;;;;5.97;2.17;;;;;;;30.58;31.57;98482.81;5012182;28;20041;-72
2022/06/25 04:04:02;;;;;;;3.60;2.30;;;;;;;31.40;29.67;98478.13;5011806;28;20061;-72
2022/06/25 04:06:28;;;;;;;7.00;2.17;;;;;;;32.06;28.12;98485.81;4995601;28;20042;-72
2022/06/25 04:08:53;;;;;;;4.30;1.98;;;;;;;32.85;26.74;98485.78;5011415;28;20049;-72
2022/06/25 04:11:19;;;;;;;6.00;1.83;;;;;;;33.54;25.60;98481.72;5011613;28;20517;-72
2022/06/25 04:13:46;;;;;;;3.83;2.27;;;;;;;34.20;24.88;98484.47;5011615;28;20420;-70
2022/06/25 04:16:11;;;;;;;4.85;2.00;;;;;;;34.77;24.44;98474.16;5011435;28;20026;-70
2022/06/25 04:18:37;;;;;;;3.08;2.00;;;;;;;35.26;23.75;98481.34;4994639;28;20112;-69
2022/06/25 04:21:02;;;;;;;5.40;2.17;;;;;;;35.82;23.04;98487.31;5027594;28;20053;-70
2022/06/25 04:23:28;;;;;;;5.70;2.03;;;;;;;36.29;22.54;98482.16;4995213;28;20030;-69
2022/06/25 04:25:54;;;;;;;4.72;2.10;;;;;;;36.71;22.13;98483.19;5012312;28;20030;-69
2022/06/25 04:31:03;;;;;;;5.00;2.17;;;;;;;37.63;20.85;98489.00;5010729;28;20511;-70
2022/06/25 04:33:29;;;;;;;6.47;2.10;;;;;;;38.03;20.21;98492.03;5012103;28;20109;-70
2022/06/25 04:35:54;;;;;;;5.03;2.03;;;;;;;38.47;19.73;98487.84;5012002;28;20060;-70
2022/06/25 04:38:20;;;;;;;6.03;2.40;;;;;;;38.87;18.77;98492.66;5013277;28;20038;-70
2022/06/25 04:40:45;;;;;;;10.65;2.60;;;;;;;39.24;18.14;98487.97;5012231;28;20034;-68
2022/06/25 04:43:11;;;;;;;9.68;2.60;;;;;;;39.62;17.60;98496.53;5012335;28;20080;-70
2022/06/25 04:45:36;;;;;;;12.57;2.65;;;;;;;39.93;17.69;98490.22;5008810;28;20033;-70
2022/06/25 04:48:02;;;;;;;6.38;2.67;;;;;;;40.29;17.59;98493.81;5027444;28;20025;-70
2022/06/25 04:50:28;;;;;;;7.15;2.42;;;;;;;40.46;17.29;98493.88;5027391;28;20033;-69
2022/06/25 04:52:53;;;;;;;13.27;2.80;;;;;;;40.95;16.88;98495.66;5010868;28;20109;-69
2022/06/25 04:55:19;;;;;;;5.78;2.08;;;;;;;41.12;16.94;98498.34;5011180;28;20041;-76
2022/06/25 04:57:45;;;;;;;7.72;2.25;;;;;;;41.31;16.93;98498.00;5011174;28;20386;-74
2022/06/25 05:00:11;;;;;;;9.10;2.28;;;;;;;41.60;16.77;98493.69;5010780;28;20045;-71
2022/06/25 05:02:37;;;;;;;10.93;2.40;;;;;;;41.75;16.46;98498.66;5025735;28;20049;-68
2022/06/25 05:05:04;;;;;;;5.45;2.25;;;;;;;42.19;16.34;98492.94;5010984;28;20033;-66
2022/06/25 05:07:30;;;;;;;12.95;2.70;;;;;;;42.70;15.15;98503.88;5010418;28;20048;-68
2022/06/25 05:09:55;;;;;;;13.65;2.85;;;;;;;43.07;15.01;98501.28;5010870;28;20034;-66
2022/06/25 05:15:05;;;;;;;9.88;2.20;;;;;;;43.69;14.23;98507.69;5011935;28;20512;-66
2022/06/25 05:17:31;;;;;;;7.27;1.50;;;;;;;43.75;14.41;98511.00;5010417;28;20056;-66
2022/06/25 05:19:56;;;;;;;4.00;1.90;;;;;;;43.78;14.42;98513.09;5012095;28;20476;-66
2022/06/25 05:22:23;;;;;;;3.70;1.73;;;;;;;44.04;14.07;98511.94;5012442;28;20057;-72
2022/06/25 05:24:48;;;;;;;;;;;;;;;44.41;13.69;98515.47;5010879;28;20030;-74
2022/06/25 05:27:14;;;;;;;8.83;1.90;;;;;;;44.74;14.08;98513.63;5009151;28;20376;-68
2022/06/25 05:29:40;;;;;;;7.90;1.90;;;;;;;44.93;13.97;98519.31;5011473;28;20037;-75
2022/06/25 05:32:06;;;;;;;5.77;1.90;;;;;;;45.38;13.07;98520.13;5008699;28;20390;-69
2022/06/25 05:34:31;;;;;;;4.13;1.83;;;;;;;45.64;12.77;98521.53;5011348;28;20105;-69
2022/06/25 05:36:57;;;;;;;4.27;1.90;;;;;;;45.72;12.58;98520.53;5012361;28;20041;-68
2022/06/25 05:39:22;;;;;;;5.43;1.90;;;;;;;45.97;12.52;98525.88;5012468;28;20030;-69
2022/06/25 05:41:48;;;;;;;5.83;1.70;;;;;;;45.87;12.26;98528.03;5010127;28;20068;-68
2022/06/25 05:44:13;;;;;;;3.17;1.60;;;;;;;46.02;12.23;98523.66;5012570;28;20037;-67
2022/06/25 05:46:38;;;;;;;8.80;1.77;;;;;;;46.32;12.61;98530.63;5012356;28;20053;-68
2022/06/25 05:49:04;;;;;;;5.03;1.40;;;;;;;46.32;12.23;98530.63;5012796;28;20405;-68
2022/06/25 05:51:29;;;;;;;5.40;1.60;;;;;;;46.41;12.20;98539.50;5027873;28;20046;-68
2022/06/25 05:53:55;;;;;;;4.67;1.80;;;;;;;46.46;12.22;98530.94;5012422;28;20049;-68
2022/06/25 05:56:21;;;;;;;5.40;1.87;;;;;;;46.47;12.42;98540.81;5010851;28;20042;-68
2022/06/25 05:58:46;;;;;;;4.45;1.70;;;;;;;46.49;12.09;98541.25;5012468;28;20088;-68
2022/06/25 06:01:12;;;;;;;4.13;1.70;;;;;;;46.44;12.57;98536.03;5012337;28;20509;-69
2022/06/25 06:03:37;;;;;;;3.93;1.50;;;;;;;46.41;12.54;98537.53;5012005;28;20088;-68
2022/06/25 06:06:03;;;;;;;3.30;1.60;;;;;;;46.41;12.32;98536.75;5012204;28;20029;-68
2022/06/25 06:08:29;;;;;;;7.00;1.88;;;;;;;46.41;12.18;98526.50;5012292;28;20054;-68
2022/06/25 06:10:54;;;;;;;3.70;1.67;;;;;;;46.43;12.23;98523.38;5010661;28;20038;-69
2022/06/25 06:13:20;;;;;;;5.73;1.60;;;;;;;46.42;12.47;98530.06;4994746;28;20033;-69
2022/06/25 06:15:45;;;;;;;5.77;1.70;;;;;;;46.43;12.44;98528.91;5012209;28;20096;-69
2022/06/25 06:18:11;;;;;;;2.80;1.50;;;;;;;46.31;12.38;98523.53;5012448;28;20555;-69
2022/06/25 06:20:36;;;;;;;4.03;1.90;;;;;;;46.25;13.22;98524.97;5027122;28;20037;-69
2022/06/25 06:23:02;;;;;;;3.33;1.70;;;;;;;46.18;12.66;98529.16;5012189;28;20064;-69
2022/06/25 06:25:27;;;;;;;5.17;1.90;;;;;;;46.12;13.09;98527.81;5012676;28;20037;-71
2022/06/25 06:27:53;;;;;;;5.37;2.20;;;;;;;46.00;13.37;98537.00;5014693;28;20057;-70
2022/06/25 06:30:18;;;;;;;5.37;2.00;;;;;;;45.86;12.97;98531.16;5030901;28;20037;-71
2022/06/25 06:32:44;;;;;;;14.47;2.10;;;;;;;45.72;13.29;98530.78;5014822;28;20065;-70
2022/06/25 06:35:09;;;;;;;3.47;1.90;;;;;;;45.68;13.78;98541.72;5014519;28;20036;-70
2022/06/25 06:37:35;;;;;;;6.07;1.73;;;;;;;45.61;13.81;98534.09;5014323;28;20505;-70
2022/06/25 06:40:01;;;;;;;10.63;2.55;;;;;;;45.54;13.47;98530.34;5014097;28;20042;-70
2022/06/25 06:42:26;;;;;;;7.10;1.90;;;;;;;45.41;14.32;98527.69;5015723;28;20042;-71
2022/06/25 06:44:52;;;;;;;5.07;2.10;;;;;;;45.28;14.08;98535.19;5015517;28;20034;-70
2022/06/25 06:47:17;;;;;;;5.07;2.00;;;;;;;45.27;14.28;98530.03;5014444;28;20470;-71
2022/06/25 06:49:43;;;;;;;5.27;2.00;;;;;;;45.19;14.58;98536.53;5014096;28;20115;-71
2022/06/25 06:52:08;;;;;;;7.07;2.47;;;;;;;45.11;14.33;98535.53;5015508;28;20492;-70
2022/06/25 06:54:34;;;;;;;7.23;1.97;;;;;;;45.03;14.19;98537.28;4997989;28;20069;-71
2022/06/25 06:56:59;;;;;;;8.13;1.93;;;;;;;44.88;14.34;98530.56;5015386;28;20038;-70
2022/06/25 06:59:26;;;;;;;7.30;2.10;;;;;;;44.75;14.34;98521.53;5015290;28;20461;-71
2022/06/25 07:01:52;;;;;;;7.03;2.30;;;;;;;44.65;14.59;98524.03;5013623;28;20124;-71
2022/06/25 07:04:17;;;;;;;8.77;2.23;;;;;;;44.53;14.84;98522.84;5015147;28;20493;-71
2022/06/25 07:06:43;;;;;;;15.53;2.20;;;;;;;44.37;14.88;98520.03;5014221;28;20017;-71
2022/06/25 07:09:08;;;;;;;7.30;2.47;;;;;;;44.22;15.03;98518.03;5014337;28;20100;-69
2022/06/25 07:11:34;;;;;;;6.27;2.87;;;;;;;44.06;15.11;98521.47;5013759;28;20080;-66
2022/06/25 07:14:01;;;;;;;12.07;2.50;;;;;;;43.96;15.27;98516.41;5015016;28;20036;-70
2022/06/25 07:16:27;;;;;;;7.72;2.15;;;;;;;43.52;15.62;98516.97;5013593;28;20026;-69
2022/06/25 07:18:53;;;;;;;6.68;2.10;;;;;;;42.94;15.95;98514.16;5030547;28;20045;-73
2022/06/25 07:21:19;;;;;;;8.27;2.20;;;;;;;42.53;16.57;98513.03;5013226;28;20490;-68
2022/06/25 07:23:44;;;;;;;4.23;2.10;;;;;;;42.55;15.96;98520.91;4997404;28;20034;-69
2022/06/25 07:26:10;;;;;;;6.70;2.40;;;;;;;42.50;16.66;98512.91;5013453;28;20034;-68
2022/06/25 07:28:35;;;;;;;9.93;2.40;;;;;;;42.53;17.04;98517.72;5014779;28;20030;-69
2022/06/25 07:31:01;;;;;;;7.28;2.53;;;;;;;42.60;16.61;98523.50;5014572;28;20037;-68
2022/06/25 07:33:27;;;;;;;3.90;2.17;;;;;;;42.62;16.80;98522.03;5011005;28;20072;-69
2022/06/25 07:35:52;;;;;;;6.30;2.90;;;;;;;42.52;16.39;98516.09;5013483;28;20500;-72
2022/06/25 07:38:18;;;;;;;7.50;2.43;;;;;;;42.39;16.76;98524.25;4979860;28;20034;-70
2022/06/25 07:40:43;;;;;;;13.47;3.00;;;;;;;42.37;16.41;98515.56;5012530;28;20029;-70
2022/06/25 07:43:08;;;;;;;11.63;2.40;;;;;;;42.27;16.76;98515.94;5014060;28;20096;-70
2022/06/25 07:45:34;;;;;;;12.68;2.55;;;;;;;42.17;17.01;98517.16;5013234;28;20105;-69
2022/06/25 07:47:59;;;;;;;6.80;2.50;;;;;;;42.12;16.83;98515.38;5013606;28;20041;-70
2022/06/25 07:53:09;;;;;;;6.28;2.40;;;;;;;42.02;16.71;98525.91;5013574;28;20499;-69
2022/06/25 07:55:34;;;;;;;9.38;2.70;;;;;;;41.87;17.51;98513.59;4995711;28;20034;-70
2022/06/25 07:58:00;;;;;;;10.85;2.25;;;;;;;41.83;17.16;98520.84;4995541;28;20136;-71
2022/06/25 08:00:25;;;;;;;8.35;2.45;;;;;;;41.75;17.24;98515.09;5013237;28;20030;-70
2022/06/25 08:02:51;;;;;;;8.43;2.08;;;;;;;41.67;16.39;98517.84;5013607;28;20523;-69
2022/06/25 08:05:16;;;;;;;8.90;2.42;;;;;;;41.59;17.12;98520.31;5011971;28;20493;-70
2022/06/25 08:07:42;;;;;;;7.60;2.22;;;;;;;41.54;17.40;98506.78;5011954;28;20409;-69
2022/06/25 08:10:08;;;;;;;3.50;1.95;;;;;;;41.49;17.42;98501.47;5011745;28;20073;-72
2022/06/25 08:12:33;;;;;;;4.55;1.80;;;;;;;41.47;17.20;98503.75;5011636;28;20029;-69
2022/06/25 08:14:59;;;;;;;3.92;1.58;;;;;;;41.37;17.18;98501.34;4995770;28;20497;-70
2022/06/25 08:17:25;;;;;;;4.60;1.58;;;;;;;41.31;16.90;98491.72;5011808;28;20127;-70
2022/06/25 08:19:50;;;;;;;5.10;2.17;;;;;;;41.21;16.63;98495.56;5013257;28;20108;-70
2022/06/25 08:22:16;;;;;;;3.40;1.73;;;;;;;41.02;17.17;98491.28;5010849;28;20042;-70
2022/06/25 08:24:41;;;;;;;4.65;2.13;;;;;;;40.79;16.90;98495.31;5012799;28;20030;-75
2022/06/25 08:27:07;;;;;;;10.57;2.00;;;;;;;40.76;17.10;98488.56;4995899;28;20033;-75
2022/06/25 08:29:32;;;;;;;8.77;1.92;;;;;;;40.75;17.50;98492.41;5011840;28;20045;-75
2022/06/25 08:31:58;;;;;;;6.88;2.20;;;;;;;40.48;17.06;98483.41;4996135;28;20046;-76
2022/06/25 08:34:24;;;;;;;4.65;1.90;;;;;;;40.32;17.62;98485.78;4979157;28;20077;-75
2022/06/25 08:36:49;;;;;;;4.68;1.88;;;;;;;40.13;17.17;98488.00;5012579;28;20029;-75
2022/06/25 08:39:15;;;;;;;4.93;1.88;;;;;;;40.02;17.53;98489.44;5013458;28;20025;-75
2022/06/25 08:41:41;;;;;;;4.50;1.90;;;;;;;39.95;17.01;98482.50;5013366;28;20053;-75
2022/06/25 08:44:06;;;;;;;7.65;1.83;;;;;;;39.86;17.41;98478.94;5013345;28;20117;-75
2022/06/25 08:46:32;;;;;;;4.63;1.80;;;;;;;39.96;17.59;98477.81;5011918;28;20037;-74
2022/06/25 08:48:58;;;;;;;5.07;1.50;;;;;;;39.95;17.19;98479.75;5011364;28;20034;-74
2022/06/25 08:51:26;;;;;;;6.60;1.60;;;;;;;39.63;16.59;98478.19;4995663;28;20084;-76
2022/06/25 08:53:52;;;;;;;4.55;1.40;;;;;;;39.65;16.42;98475.16;4995866;28;20036;-74
2022/06/25 08:56:18;;;;;;;6.28;1.30;;;;;;;39.61;15.98;98472.25;4995087;28;20041;-75
2022/06/25 08:58:44;;;;;;;3.45;1.40;;;;;;;39.47;15.97;98477.78;4995654;28;20041;-74
2022/06/25 09:01:09;;;;;;;4.35;1.50;;;;;;;39.30;16.19;98474.97;5013389;28;20053;-75
2022/06/25 09:03:35;;;;;;;3.25;1.83;;;;;;;39.28;16.08;98475.28;5012969;28;20033;-76
2022/06/25 09:06:17;;;;;;;3.65;1.60;;;;;;;39.20;15.78;98476.06;5011761;28;20506;-77
2022/06/25 09:08:43;;;;;;;6.13;1.70;;;;;;;39.20;16.72;98481.53;5011391;28;20424;-76
2022/06/25 09:11:08;;;;;;;7.47;2.10;;;;;;;39.06;16.99;98485.13;5011498;28;20461;-76
2022/06/25 09:13:34;;;;;;;7.38;1.70;;;;;;;38.93;16.85;98475.06;5011621;28;20037;-76
2022/06/25 09:15:59;;;;;;;3.95;1.50;;;;;;;39.01;17.40;98477.03;5012803;28;20022;-75
2022/06/25 09:18:25;;;;;;;3.85;1.65;;;;;;;38.97;17.03;98480.72;5011453;28;20037;-76
2022/06/25 09:20:55;;;;;;;3.55;1.70;;;;;;;38.80;17.17;98465.84;5012741;28;20029;-75
2022/06/25 09:23:20;;;;;;;7.47;1.73;;;;;;;38.51;17.60;98471.69;5011614;28;20036;-76
2022/06/25 09:25:46;;;;;;;5.22;1.70;;;;;;;38.43;17.85;98464.22;4995018;28;20030;-67
2022/06/25 09:28:30;;;;;;;6.35;1.65;;;;;;;38.46;17.95;98466.34;5011834;28;20034;-67
2022/06/25 09:30:56;;;;;;;6.70;1.88;;;;;;;38.43;18.50;98472.41;5011398;28;20112;-69
2022/06/25 09:33:21;;;;;;;7.65;1.70;;;;;;;38.09;18.18;98466.31;5011361;28;20034;-69
2022/06/25 09:35:50;;;;;;;9.02;2.15;;;;;;;37.77;18.25;98457.16;5012473;28;20065;-69
2022/06/25 09:38:16;;;;;;;4.60;1.85;;;;;;;37.55;18.60;98452.41;4994893;28;20046;-70
2022/06/25 09:40:48;;;;;;;3.72;2.03;;;;;;;37.64;18.88;98461.47;5011381;28;20022;-68
2022/06/25 09:43:15;;;;;;;7.53;2.03;;;;;;;37.37;18.84;98459.56;5011253;28;20026;-69
2022/06/25 09:45:48;;;;;;;5.10;2.10;;;;;;;37.25;18.46;98453.78;4994657;28;20071;-69
2022/06/25 09:48:23;;;;;;;3.15;1.60;;;;;;;37.04;19.11;98456.84;4995017;28;20049;-70
2022/06/25 09:51:12;;;;;;;5.88;1.73;;;;;;;36.84;19.19;98462.63;5010813;28;20588;-68
2022/06/25 09:53:54;;;;;;;6.50;1.90;;;;;;;36.49;19.45;98451.97;4995866;28;20064;-70
2022/06/25 09:56:21;;;;;;;5.55;1.95;;;;;;;36.32;19.78;98457.13;4995375;28;20057;-69
2022/06/25 09:58:47;;;;;;;3.67;1.73;;;;;;;36.20;20.19;98452.91;4995782;28;20065;-70
2022/06/25 10:01:16;;;;;;;4.75;1.80;;;;;;;36.21;20.59;98448.25;4982520;28;20128;-70
2022/06/25 10:03:41;;;;;;;5.57;1.80;;;;;;;36.30;20.20;98443.81;5015245;28;20408;-69
2022/06/25 10:06:07;;;;;;;6.07;2.03;;;;;;;36.27;19.96;98444.41;5014863;28;20037;-69
2022/06/25 10:08:32;;;;;;;5.00;2.00;;;;;;;36.24;20.13;98447.69;4998539;28;20555;-67
2022/06/25 10:10:58;;;;;;;5.40;1.95;;;;;;;36.17;20.13;98447.25;5015010;28;20041;-69
2022/06/25 10:13:24;;;;;;;4.88;1.80;;;;;;;36.08;20.20;98444.38;4998809;28;20482;-68
2022/06/25 10:15:50;;;;;;;5.07;1.93;;;;;;;36.17;20.30;98453.47;5016670;28;20105;-68
2022/06/25 10:18:15;;;;;;;3.92;1.70;;;;;;;36.19;20.14;98442.31;5016060;28;20499;-69
2022/06/25 10:20:42;;;;;;;3.75;1.77;;;;;;;36.18;20.43;98452.41;5012628;28;20026;-69
2022/06/25 10:23:09;;;;;;;7.38;2.10;;;;;;;35.97;20.35;98445.59;5014156;28;20557;-68
2022/06/25 10:25:35;;;;;;;7.22;1.88;;;;;;;35.79;20.43;98448.00;5013540;28;20083;-69
2022/06/25 10:28:14;;;;;;;3.85;1.95;;;;;;;35.67;20.56;98453.78;4997489;28;20029;-69
2022/06/25 10:30:42;;;;;;;2.90;1.90;;;;;;;35.49;20.49;98449.94;5013365;28;20030;-69
2022/06/25 10:33:08;;;;;;;2.53;1.70;;;;;;;35.24;20.16;98455.59;5015383;28;20474;-68
2022/06/25 10:35:35;;;;;;;5.30;2.10;;;;;;;35.14;20.78;98448.38;5015055;28;20029;-68
2022/06/25 10:38:07;;;;;;;6.93;1.58;;;;;;;35.08;20.42;98447.59;5014187;28;20053;-69
2022/06/25 10:40:46;;;;;;;4.28;1.90;;;;;;;35.11;20.77;98447.03;5013481;28;20033;-69
2022/06/25 10:43:33;;;;;;;3.78;1.90;;;;;;;35.11;20.89;98452.44;5013905;28;20026;-69
2022/06/25 10:45:58;;;;;;;10.30;2.28;;;;;;;35.08;21.17;98450.31;5012075;28;20030;-70
2022/06/25 10:48:24;;;;;;;4.40;1.73;;;;;;;34.79;20.96;98453.00;5007718;28;20031;-70
2022/06/25 10:50:50;;;;;;;4.97;1.90;;;;;;;34.82;21.33;98447.00;4993368;28;20034;-68
2022/06/25 10:53:15;;;;;;;2.65;1.75;;;;;;;34.87;20.83;98438.84;4994028;28;20109;-68
2022/06/25 10:55:47;;;;;;;7.47;1.83;;;;;;;34.94;20.98;98441.22;4993687;28;20085;-69
2022/06/25 10:58:18;;;;;;;2.35;1.73;;;;;;;35.03;21.50;98447.66;4994965;28;20117;-67
2022/06/25 11:01:04;;;;;;;4.85;1.83;;;;;;;35.12;21.71;98436.97;4993110;28;20038;-67
2022/06/25 11:03:32;;;;;;;4.95;2.00;;;;;;;34.93;21.52;98440.44;4992608;28;20035;-68
2022/06/25 11:06:29;;;;;;;3.55;1.90;;;;;;;34.79;21.67;98440.25;4994685;28;20030;-67
2022/06/25 11:08:54;;;;;;;3.05;1.60;;;;;;;34.74;21.71;98437.59;4993527;28;20050;-68
2022/06/25 11:11:30;;;;;;;4.78;1.92;;;;;;;34.81;22.28;98441.84;4992043;28;20041;-68
2022/06/25 11:13:56;;;;;;;5.82;1.95;;;;;;;34.80;21.53;98441.06;4993354;28;20089;-66
2022/06/25 11:16:22;;;;;;;4.85;1.75;;;;;;;34.70;21.77;98435.69;4993785;28;20026;-66
2022/06/25 11:18:48;;;;;;;4.50;1.77;;;;;;;34.68;21.72;98437.88;4977104;28;20088;-68
2022/06/25 11:21:34;;;;;;;6.03;1.92;;;;;;;34.63;21.82;98441.41;4977001;28;20030;-68
2022/06/25 11:24:11;;;;;;;2.92;1.60;;;;;;;34.55;22.09;98442.03;4993472;28;20030;-67
2022/06/25 11:29:22;;;;;;;5.70;1.85;;;;;;;34.69;21.83;98436.78;4979556;28;20072;-67
2022/06/25 11:31:49;;;;;;;7.07;2.10;;;;;;;34.64;21.69;98434.91;4976906;28;20470;-67
2022/06/25 11:34:19;;;;;;;3.53;1.90;;;;;;;34.57;21.47;98437.13;4993011;28;20441;-66
2022/06/25 11:36:53;;;;;;;4.30;2.00;;;;;;;34.61;22.07;98433.56;4992746;28;20559;-67
2022/06/25 11:39:19;;;;;;;2.80;1.75;;;;;;;34.68;22.14;98427.84;4992869;28;20039;-67
2022/06/25 11:41:48;;;;;;;5.40;1.85;;;;;;;34.73;20.94;98430.53;4992991;28;20382;-68
2022/06/25 11:44:14;;;;;;;4.57;1.67;;;;;;;34.73;21.52;98432.44;4992633;28;20038;-68
2022/06/25 11:46:39;;;;;;;3.60;1.80;;;;;;;34.63;21.33;98421.66;4992704;28;20023;-67
2022/06/25 11:49:05;;;;;;;5.75;1.65;;;;;;;34.73;21.54;98424.28;4992768;28;20034;-69
2022/06/25 11:51:31;;;;;;;4.43;1.65;;;;;;;34.76;21.49;98424.56;4992611;28;20030;-68
2022/06/25 11:53:57;;;;;;;4.72;1.70;;;;;;;34.81;22.01;98422.88;4976514;28;20046;-67
2022/06/25 11:56:22;;;;;;;9.05;1.98;;;;;;;34.72;21.45;98414.53;4993652;28;20033;-67